Costa Victoria — IBLC — position and weather

sailwx.info

Track history (hours):
 
Tides and Currents Weather Stations Pressure Air Temp Water Temp Dewpoint Dewpoint Depression Visibility Wind Speed Wind Dir Waves Ship Positions

Costa Victoria

Last reported at 2017-Nov-18 17:27 UTC. Time now 2017-Nov-19 03:05 UTC.
Position N 01°22' E 103°16'.

Length 253 m; draft 8 m.

Type: Ship. MMSI: 247109000.

Date/timePositionNaut miles runAvg speedWind from/ knotsBaromVisibWave heightAir tempDewpointWater temp
2017-Nov-18 17:27N 01°22' E 103°16'716.8
2017-Nov-18 17:00N 01°17' E 103°21'815.8
2017-Nov-18 16:30N 01°14' E 103°28'816.4
2017-Nov-18 16:01N 01°12' E 103°36'5 9.4
2017-Nov-18 15:30N 01°13' E 103°41'611.1
2017-Nov-18 15:00N 01°16' E 103°45'3 6.7
2017-Nov-18 14:30N 01°16' E 103°49'1 1.0
2017-Nov-18 13:59N 01°16' E 103°49'0 0.0
2017-Nov-18 13:26N 01°16' E 103°49'0 0.0
2017-Nov-18 12:59N 01°16' E 103°49'0 0.0
2017-Nov-18 12:29N 01°16' E 103°49'0 0.0
2017-Nov-18 11:59N 01°16' E 103°49'0 0.0
2017-Nov-18 11:23N 01°16' E 103°49'0 0.0
2017-Nov-18 10:56N 01°16' E 103°49'0 0.0
2017-Nov-18 10:29N 01°16' E 103°49'0 0.0
2017-Nov-18 09:59N 01°16' E 103°49'0 0.0
2017-Nov-18 09:29N 01°16' E 103°49'0 0.0
2017-Nov-18 08:59N 01°16' E 103°49'0 0.0
2017-Nov-18 08:29N 01°16' E 103°49'0 0.0
2017-Nov-18 07:56N 01°16' E 103°49'0 0.0
2017-Nov-18 07:29N 01°16' E 103°49'0 0.0
2017-Nov-18 06:59N 01°16' E 103°49'0 0.0
2017-Nov-18 06:29N 01°16' E 103°49'0 0.0
2017-Nov-18 05:59N 01°16' E 103°49'0 0.9
2017-Nov-18 05:30N 01°16' E 103°49'3 6.6
2017-Nov-18 05:01N 01°12' E 103°49'3 5.7
2017-Nov-18 04:31N 01°10' E 103°48'611.3
2017-Nov-18 04:01N 01°06' E 103°44'612.0
2017-Nov-18 03:31N 01°03' E 103°39'612.9
2017-Nov-18 03:00N 01°06' E 103°33'816.9
2017-Nov-18 02:30N 01°11' E 103°26'918.0
2017-Nov-18 01:59N 01°16' E 103°19'30517.9
2017-Nov-17 08:57N 05°10' E 100°02'818.6
2017-Nov-17 08:30N 05°19' E 100°02'1119.0
2017-Nov-17 07:55N 05°29' E 100°06'917.0
2017-Nov-17 07:22N 05°35' E 100°13'515.0
2017-Nov-17 07:00N 05°32' E 100°18'713.2
2017-Nov-17 06:30N 05°26' E 100°21'0 0.9
2017-Nov-17 05:58N 05°25' E 100°21'0 0.0
2017-Nov-17 05:28N 05°25' E 100°21'0 0.0
2017-Nov-17 04:58N 05°25' E 100°21'0 0.0
2017-Nov-17 04:28N 05°25' E 100°21'0 0.0
2017-Nov-17 03:58N 05°25' E 100°21'0 0.0
2017-Nov-17 03:28N 05°25' E 100°21'0 0.0
2017-Nov-17 02:58N 05°25' E 100°21'0 0.0
2017-Nov-17 02:28N 05°25' E 100°21'0 0.0
2017-Nov-17 01:58N 05°25' E 100°21'0 0.0
2017-Nov-17 01:28N 05°25' E 100°21'0 0.0
2017-Nov-17 00:58N 05°25' E 100°21'0 0.0
2017-Nov-17 00:28N 05°25' E 100°21'0 0.0
2017-Nov-17 00:00N 05°25' E 100°21'2 3.4
2017-Nov-16 23:30N 05°27' E 100°21'4 7.3
2017-Nov-16 23:00N 05°30' E 100°20'714.1
2017-Nov-16 22:30N 05°35' E 100°14'714.5
2017-Nov-16 22:00N 05°36' E 100°07'1114.1
2017-Nov-16 21:12N 05°26' E 100°02'317.5
2017-Nov-16 21:00N 05°23' E 100°02'917.0
2017-Nov-16 20:29N 05°14' E 100°01'1118.5
2017-Nov-16 19:55N 05°03' E 100°01'29711.4
2017-Nov-15 17:43N 01°20' E 103°18'418.1
2017-Nov-15 17:29N 01°17' E 103°21'817.6
2017-Nov-15 17:01N 01°13' E 103°28'917.1
2017-Nov-15 16:31N 01°12' E 103°37'611.0
2017-Nov-15 16:00N 01°14' E 103°42'510.2
2017-Nov-15 15:30N 01°15' E 103°47'2 4.4
2017-Nov-15 14:58N 01°16' E 103°49'0 0.0
2017-Nov-15 14:25N 01°16' E 103°49'0 0.0
2017-Nov-15 13:52N 01°16' E 103°49'0 0.0
2017-Nov-15 13:28N 01°16' E 103°49'0 0.0
2017-Nov-15 12:58N 01°16' E 103°49'0 0.0
2017-Nov-15 12:28N 01°16' E 103°49'0 0.0
2017-Nov-15 11:58N 01°16' E 103°49'0 0.0
2017-Nov-15 11:22N 01°16' E 103°49'0 0.0
2017-Nov-15 10:52N 01°16' E 103°49'0 0.0
2017-Nov-15 10:28N 01°16' E 103°49'0 0.0
2017-Nov-15 09:58N 01°16' E 103°49'0 0.0
2017-Nov-15 09:28N 01°16' E 103°49'0 0.0
2017-Nov-15 08:58N 01°16' E 103°49'0 0.0
2017-Nov-15 08:28N 01°16' E 103°49'0 0.0
2017-Nov-15 07:58N 01°16' E 103°49'0 0.0
2017-Nov-15 07:28N 01°16' E 103°49'0 0.0
2017-Nov-15 06:58N 01°16' E 103°49'0 0.0
2017-Nov-15 06:28N 01°16' E 103°49'0 0.0
2017-Nov-15 06:00N 01°16' E 103°49'1 1.7
2017-Nov-15 05:30N 01°16' E 103°48'4 7.5
2017-Nov-15 05:01N 01°12' E 103°49'5 9.9
2017-Nov-15 04:30N 01°08' E 103°46'918.6
2017-Nov-15 04:00N 01°03' E 103°39'1019.2
2017-Nov-15 03:30N 01°08' E 103°31'1018.1
2017-Nov-15 02:59N 01°13' E 103°23'30817.1
2017-Nov-14 08:59N 05°08' E 100°03'1018.8
2017-Nov-14 08:27N 05°18' E 100°03'1019.4
2017-Nov-14 07:55N 05°28' E 100°05'818.3
2017-Nov-14 07:30N 05°34' E 100°10'813.3
2017-Nov-14 06:56N 05°32' E 100°17'614.3
2017-Nov-14 06:30N 05°27' E 100°21'2 3.7
2017-Nov-14 05:57N 05°25' E 100°21'0 0.0
2017-Nov-14 05:27N 05°25' E 100°21'0 0.0
2017-Nov-14 04:57N 05°25' E 100°21'0 0.0
2017-Nov-14 04:27N 05°25' E 100°21'0 0.0
2017-Nov-14 03:57N 05°25' E 100°21'0 0.0
2017-Nov-14 03:27N 05°25' E 100°21'0 0.0
2017-Nov-14 02:57N 05°25' E 100°21'0 0.0
2017-Nov-14 02:27N 05°25' E 100°21'0 0.0
2017-Nov-14 01:57N 05°25' E 100°21'0 0.0
2017-Nov-14 01:27N 05°25' E 100°21'0 0.0
2017-Nov-14 00:57N 05°25' E 100°21'0 0.0
2017-Nov-14 00:27N 05°25' E 100°21'0 0.0
2017-Nov-14 00:00N 05°25' E 100°21'1 2.5
2017-Nov-13 23:30N 05°26' E 100°21'510.3
2017-Nov-13 23:00N 05°31' E 100°19'713.8
2017-Nov-13 22:30N 05°35' E 100°13'916.5
2017-Nov-13 21:57N 05°40' E 100°05'  
2017-Nov-11 16:50N 01°19' E 103°19'618.1
2017-Nov-11 16:30N 01°15' E 103°23'917.8
2017-Nov-11 16:00N 01°13' E 103°32'815.5
2017-Nov-11 15:30N 01°13' E 103°40'611.6
2017-Nov-11 15:00N 01°16' E 103°44'4 8.8
2017-Nov-11 14:30N 01°16' E 103°49'0 0.5
2017-Nov-11 14:00N 01°16' E 103°49'0 0.0
2017-Nov-11 13:24N 01°16' E 103°49'0 0.0
2017-Nov-11 12:54N 01°16' E 103°49'0 0.0
2017-Nov-11 12:30N 01°16' E 103°49'0 0.0
2017-Nov-11 12:00N 01°16' E 103°49'0 0.0
2017-Nov-11 11:30N 01°16' E 103°49'0 0.0
2017-Nov-11 11:00N 01°16' E 103°49'0 0.0
2017-Nov-11 10:30N 01°16' E 103°49'0 0.0
2017-Nov-11 10:00N 01°16' E 103°49'0 0.0
2017-Nov-11 09:30N 01°16' E 103°49'0 0.0
2017-Nov-11 09:00N 01°16' E 103°49'0 0.0
2017-Nov-11 08:30N 01°16' E 103°49'0 0.0
2017-Nov-11 08:00N 01°16' E 103°49'0 0.0
2017-Nov-11 07:00N 01°16' E 103°49'0 0.0
2017-Nov-11 06:30N 01°16' E 103°49'0 0.0
2017-Nov-11 06:00N 01°16' E 103°49'0 0.4
2017-Nov-11 05:30N 01°16' E 103°49'3 5.1
2017-Nov-11 05:00N 01°14' E 103°47'4 7.9
2017-Nov-11 04:30N 01°10' E 103°48'815.2
2017-Nov-11 04:00N 01°05' E 103°43'714.1
2017-Nov-11 03:30N 01°04' E 103°36'816.3
2017-Nov-11 03:00N 01°09' E 103°29'816.3
2017-Nov-11 02:30N 01°14' E 103°23'30117.7
2017-Nov-10 09:29N 05°01' E 100°05'1020.1
2017-Nov-10 08:59N 05°11' E 100°02'1019.9
2017-Nov-10 08:30N 05°20' E 100°02'1219.9
2017-Nov-10 07:55N 05°31' E 100°06'717.2
2017-Nov-10 07:30N 05°35' E 100°12'714.7
2017-Nov-10 07:00N 05°31' E 100°18'611.9
2017-Nov-10 06:30N 05°26' E 100°21'1 1.7
2017-Nov-10 05:56N 05°25' E 100°21'0 0.0
2017-Nov-10 05:26N 05°25' E 100°21'0 0.0
2017-Nov-10 04:50N 05°25' E 100°21'0 0.0
2017-Nov-10 04:02N 05°25' E 100°21'0 0.0
2017-Nov-10 03:56N 05°25' E 100°21'0 0.0
2017-Nov-10 03:26N 05°25' E 100°21'0 0.0
2017-Nov-10 02:56N 05°25' E 100°21'0 0.0
2017-Nov-10 02:26N 05°25' E 100°21'0 0.0
2017-Nov-10 01:50N 05°25' E 100°21'0 0.0
2017-Nov-10 01:26N 05°25' E 100°21'0 0.0
2017-Nov-10 00:56N 05°25' E 100°21'0 0.0
2017-Nov-10 00:26N 05°25' E 100°21'0 0.0
2017-Nov-10 00:00N 05°25' E 100°21'1 1.6
2017-Nov-09 23:31N 05°26' E 100°21'611.1
2017-Nov-09 23:00N 05°31' E 100°19'714.0
2017-Nov-09 22:30N 05°35' E 100°13'612.2
2017-Nov-09 22:00N 05°36' E 100°07'1214.2
2017-Nov-09 21:11N 05°25' E 100°02'314.9
2017-Nov-09 20:59N 05°23' E 100°02'917.1
2017-Nov-09 20:28N 05°14' E 100°02'30711.7
2017-Nov-08 18:16N 01°19' E 103°20'517.8
2017-Nov-08 18:01N 01°16' E 103°24'917.8
2017-Nov-08 17:30N 01°13' E 103°32'  
Track history (hours):
 
Tides and Currents Weather Stations Pressure Air Temp Water Temp Dewpoint Dewpoint Depression Visibility Wind Speed Wind Dir Waves Ship Positions

Costa Victoria

Last reported at 2017-Nov-18 17:27 UTC. Time now 2017-Nov-19 03:05 UTC.
Position N 01°22' E 103°16'.

Length 253 m; draft 8 m.

Type: Ship. MMSI: 247109000.

Date/timePositionNaut miles runAvg speedWind from/ knotsBaromVisibWave heightAir tempDewpointWater temp
2017-Nov-18 17:27N 01°22' E 103°16'716.8
2017-Nov-18 17:00N 01°17' E 103°21'815.8
2017-Nov-18 16:30N 01°14' E 103°28'816.4
2017-Nov-18 16:01N 01°12' E 103°36'5 9.4
2017-Nov-18 15:30N 01°13' E 103°41'611.1
2017-Nov-18 15:00N 01°16' E 103°45'3 6.7
2017-Nov-18 14:30N 01°16' E 103°49'1 1.0
2017-Nov-18 13:59N 01°16' E 103°49'0 0.0
2017-Nov-18 13:26N 01°16' E 103°49'0 0.0
2017-Nov-18 12:59N 01°16' E 103°49'0 0.0
2017-Nov-18 12:29N 01°16' E 103°49'0 0.0
2017-Nov-18 11:59N 01°16' E 103°49'0 0.0
2017-Nov-18 11:23N 01°16' E 103°49'0 0.0
2017-Nov-18 10:56N 01°16' E 103°49'0 0.0
2017-Nov-18 10:29N 01°16' E 103°49'0 0.0
2017-Nov-18 09:59N 01°16' E 103°49'0 0.0
2017-Nov-18 09:29N 01°16' E 103°49'0 0.0
2017-Nov-18 08:59N 01°16' E 103°49'0 0.0
2017-Nov-18 08:29N 01°16' E 103°49'0 0.0
2017-Nov-18 07:56N 01°16' E 103°49'0 0.0
2017-Nov-18 07:29N 01°16' E 103°49'0 0.0
2017-Nov-18 06:59N 01°16' E 103°49'0 0.0
2017-Nov-18 06:29N 01°16' E 103°49'0 0.0
2017-Nov-18 05:59N 01°16' E 103°49'0 0.9
2017-Nov-18 05:30N 01°16' E 103°49'3 6.6
2017-Nov-18 05:01N 01°12' E 103°49'3 5.7
2017-Nov-18 04:31N 01°10' E 103°48'611.3
2017-Nov-18 04:01N 01°06' E 103°44'612.0
2017-Nov-18 03:31N 01°03' E 103°39'612.9
2017-Nov-18 03:00N 01°06' E 103°33'816.9
2017-Nov-18 02:30N 01°11' E 103°26'918.0
2017-Nov-18 01:59N 01°16' E 103°19'30517.9
2017-Nov-17 08:57N 05°10' E 100°02'818.6
2017-Nov-17 08:30N 05°19' E 100°02'1119.0
2017-Nov-17 07:55N 05°29' E 100°06'917.0
2017-Nov-17 07:22N 05°35' E 100°13'515.0
2017-Nov-17 07:00N 05°32' E 100°18'713.2
2017-Nov-17 06:30N 05°26' E 100°21'0 0.9
2017-Nov-17 05:58N 05°25' E 100°21'0 0.0
2017-Nov-17 05:28N 05°25' E 100°21'0 0.0
2017-Nov-17 04:58N 05°25' E 100°21'0 0.0
2017-Nov-17 04:28N 05°25' E 100°21'0 0.0
2017-Nov-17 03:58N 05°25' E 100°21'0 0.0
2017-Nov-17 03:28N 05°25' E 100°21'0 0.0
2017-Nov-17 02:58N 05°25' E 100°21'0 0.0
2017-Nov-17 02:28N 05°25' E 100°21'0 0.0
2017-Nov-17 01:58N 05°25' E 100°21'0 0.0
2017-Nov-17 01:28N 05°25' E 100°21'0 0.0
2017-Nov-17 00:58N 05°25' E 100°21'0 0.0
2017-Nov-17 00:28N 05°25' E 100°21'0 0.0
2017-Nov-17 00:00N 05°25' E 100°21'2 3.4
2017-Nov-16 23:30N 05°27' E 100°21'4 7.3
2017-Nov-16 23:00N 05°30' E 100°20'714.1
2017-Nov-16 22:30N 05°35' E 100°14'714.5
2017-Nov-16 22:00N 05°36' E 100°07'1114.1
2017-Nov-16 21:12N 05°26' E 100°02'317.5
2017-Nov-16 21:00N 05°23' E 100°02'917.0
2017-Nov-16 20:29N 05°14' E 100°01'1118.5
2017-Nov-16 19:55N 05°03' E 100°01'29711.4
2017-Nov-15 17:43N 01°20' E 103°18'418.1
2017-Nov-15 17:29N 01°17' E 103°21'817.6
2017-Nov-15 17:01N 01°13' E 103°28'917.1
2017-Nov-15 16:31N 01°12' E 103°37'611.0
2017-Nov-15 16:00N 01°14' E 103°42'510.2
2017-Nov-15 15:30N 01°15' E 103°47'2 4.4
2017-Nov-15 14:58N 01°16' E 103°49'0 0.0
2017-Nov-15 14:25N 01°16' E 103°49'0 0.0
2017-Nov-15 13:52N 01°16' E 103°49'0 0.0
2017-Nov-15 13:28N 01°16' E 103°49'0 0.0
2017-Nov-15 12:58N 01°16' E 103°49'0 0.0
2017-Nov-15 12:28N 01°16' E 103°49'0 0.0
2017-Nov-15 11:58N 01°16' E 103°49'0 0.0
2017-Nov-15 11:22N 01°16' E 103°49'0 0.0
2017-Nov-15 10:52N 01°16' E 103°49'0 0.0
2017-Nov-15 10:28N 01°16' E 103°49'0 0.0
2017-Nov-15 09:58N 01°16' E 103°49'0 0.0
2017-Nov-15 09:28N 01°16' E 103°49'0 0.0
2017-Nov-15 08:58N 01°16' E 103°49'0 0.0
2017-Nov-15 08:28N 01°16' E 103°49'0 0.0
2017-Nov-15 07:58N 01°16' E 103°49'0 0.0
2017-Nov-15 07:28N 01°16' E 103°49'0 0.0
2017-Nov-15 06:58N 01°16' E 103°49'0 0.0
2017-Nov-15 06:28N 01°16' E 103°49'0 0.0
2017-Nov-15 06:00N 01°16' E 103°49'1 1.7
2017-Nov-15 05:30N 01°16' E 103°48'4 7.5
2017-Nov-15 05:01N 01°12' E 103°49'5 9.9
2017-Nov-15 04:30N 01°08' E 103°46'918.6
2017-Nov-15 04:00N 01°03' E 103°39'1019.2
2017-Nov-15 03:30N 01°08' E 103°31'1018.1
2017-Nov-15 02:59N 01°13' E 103°23'30817.1
2017-Nov-14 08:59N 05°08' E 100°03'1018.8
2017-Nov-14 08:27N 05°18' E 100°03'1019.4
2017-Nov-14 07:55N 05°28' E 100°05'818.3
2017-Nov-14 07:30N 05°34' E 100°10'813.3
2017-Nov-14 06:56N 05°32' E 100°17'614.3
2017-Nov-14 06:30N 05°27' E 100°21'2 3.7
2017-Nov-14 05:57N 05°25' E 100°21'0 0.0
2017-Nov-14 05:27N 05°25' E 100°21'0 0.0
2017-Nov-14 04:57N 05°25' E 100°21'0 0.0
2017-Nov-14 04:27N 05°25' E 100°21'0 0.0
2017-Nov-14 03:57N 05°25' E 100°21'0 0.0
2017-Nov-14 03:27N 05°25' E 100°21'0 0.0
2017-Nov-14 02:57N 05°25' E 100°21'0 0.0
2017-Nov-14 02:27N 05°25' E 100°21'0 0.0
2017-Nov-14 01:57N 05°25' E 100°21'0 0.0
2017-Nov-14 01:27N 05°25' E 100°21'0 0.0
2017-Nov-14 00:57N 05°25' E 100°21'0 0.0
2017-Nov-14 00:27N 05°25' E 100°21'0 0.0
2017-Nov-14 00:00N 05°25' E 100°21'1 2.5
2017-Nov-13 23:30N 05°26' E 100°21'510.3
2017-Nov-13 23:00N 05°31' E 100°19'713.8
2017-Nov-13 22:30N 05°35' E 100°13'916.5
2017-Nov-13 21:57N 05°40' E 100°05'  
2017-Nov-11 16:50N 01°19' E 103°19'618.1
2017-Nov-11 16:30N 01°15' E 103°23'917.8
2017-Nov-11 16:00N 01°13' E 103°32'815.5
2017-Nov-11 15:30N 01°13' E 103°40'611.6
2017-Nov-11 15:00N 01°16' E 103°44'4 8.8
2017-Nov-11 14:30N 01°16' E 103°49'0 0.5
2017-Nov-11 14:00N 01°16' E 103°49'0 0.0
2017-Nov-11 13:24N 01°16' E 103°49'0 0.0
2017-Nov-11 12:54N 01°16' E 103°49'0 0.0
2017-Nov-11 12:30N 01°16' E 103°49'0 0.0
2017-Nov-11 12:00N 01°16' E 103°49'0 0.0
2017-Nov-11 11:30N 01°16' E 103°49'0 0.0
2017-Nov-11 11:00N 01°16' E 103°49'0 0.0
2017-Nov-11 10:30N 01°16' E 103°49'0 0.0
2017-Nov-11 10:00N 01°16' E 103°49'0 0.0
2017-Nov-11 09:30N 01°16' E 103°49'0 0.0
2017-Nov-11 09:00N 01°16' E 103°49'0 0.0
2017-Nov-11 08:30N 01°16' E 103°49'0 0.0
2017-Nov-11 08:00N 01°16' E 103°49'0 0.0
2017-Nov-11 07:00N 01°16' E 103°49'0 0.0
2017-Nov-11 06:30N 01°16' E 103°49'0 0.0
2017-Nov-11 06:00N 01°16' E 103°49'0 0.4
2017-Nov-11 05:30N 01°16' E 103°49'3 5.1
2017-Nov-11 05:00N 01°14' E 103°47'4 7.9
2017-Nov-11 04:30N 01°10' E 103°48'815.2
2017-Nov-11 04:00N 01°05' E 103°43'714.1
2017-Nov-11 03:30N 01°04' E 103°36'816.3
2017-Nov-11 03:00N 01°09' E 103°29'816.3
2017-Nov-11 02:30N 01°14' E 103°23'30117.7
2017-Nov-10 09:29N 05°01' E 100°05'1020.1
2017-Nov-10 08:59N 05°11' E 100°02'1019.9
2017-Nov-10 08:30N 05°20' E 100°02'1219.9
2017-Nov-10 07:55N 05°31' E 100°06'717.2
2017-Nov-10 07:30N 05°35' E 100°12'714.7
2017-Nov-10 07:00N 05°31' E 100°18'611.9
2017-Nov-10 06:30N 05°26' E 100°21'1 1.7
2017-Nov-10 05:56N 05°25' E 100°21'0 0.0
2017-Nov-10 05:26N 05°25' E 100°21'0 0.0
2017-Nov-10 04:50N 05°25' E 100°21'0 0.0
2017-Nov-10 04:02N 05°25' E 100°21'0 0.0
2017-Nov-10 03:56N 05°25' E 100°21'0 0.0
2017-Nov-10 03:26N 05°25' E 100°21'0 0.0
2017-Nov-10 02:56N 05°25' E 100°21'0 0.0
2017-Nov-10 02:26N 05°25' E 100°21'0 0.0
2017-Nov-10 01:50N 05°25' E 100°21'0 0.0
2017-Nov-10 01:26N 05°25' E 100°21'0 0.0
2017-Nov-10 00:56N 05°25' E 100°21'0 0.0
2017-Nov-10 00:26N 05°25' E 100°21'0 0.0
2017-Nov-10 00:00N 05°25' E 100°21'1 1.6
2017-Nov-09 23:31N 05°26' E 100°21'611.1
2017-Nov-09 23:00N 05°31' E 100°19'714.0
2017-Nov-09 22:30N 05°35' E 100°13'612.2
2017-Nov-09 22:00N 05°36' E 100°07'1214.2
2017-Nov-09 21:11N 05°25' E 100°02'314.9
2017-Nov-09 20:59N 05°23' E 100°02'917.1
2017-Nov-09 20:28N 05°14' E 100°02'30711.7
2017-Nov-08 18:16N 01°19' E 103°20'517.8
2017-Nov-08 18:01N 01°16' E 103°24'917.8
2017-Nov-08 17:30N 01°13' E 103°32'  

Dump ship's entire track history